createdAt,value
2016-08-30T00:01:03.573Z,0
2016-08-30T00:02:03.585Z,0
2016-08-30T00:03:08.629Z,0
2016-08-30T00:03:58.723Z,0
2016-08-30T00:04:58.474Z,0
2016-08-30T00:05:58.607Z,0
2016-08-30T00:06:58.471Z,0
2016-08-30T00:08:58.339Z,0
2016-08-30T00:09:58.615Z,0
2016-08-30T00:10:59.539Z,0
2016-08-30T00:11:58.303Z,0
2016-08-30T00:12:58.297Z,0
2016-08-30T00:13:58.232Z,0
2016-08-30T00:14:58.183Z,0
2016-08-30T00:15:58.419Z,0
2016-08-30T00:16:59.283Z,0
2016-08-30T00:17:58.945Z,0
2016-08-30T00:18:58.109Z,0
2016-08-30T00:19:58.057Z,0
2016-08-30T00:20:58.065Z,0
2016-08-30T00:22:13.031Z,0
2016-08-30T00:22:57.995Z,0
2016-08-30T00:24:13.454Z,0
2016-08-30T00:24:57.968Z,0
2016-08-30T00:26:12.613Z,0
2016-08-30T00:26:57.874Z,0
2016-08-30T00:27:59.987Z,0
2016-08-30T00:28:57.866Z,0
2016-08-30T00:29:58.572Z,0
2016-08-30T00:30:58.209Z,0
2016-08-30T00:31:57.757Z,0
2016-08-30T00:32:57.746Z,0
2016-08-30T00:33:58.022Z,0
2016-08-30T00:35:58.716Z,0
2016-08-30T00:36:58.408Z,0
2016-08-30T00:37:58.375Z,0
2016-08-30T00:38:57.597Z,0
2016-08-30T00:39:57.875Z,0
2016-08-30T00:40:57.564Z,0
2016-08-30T00:42:13.786Z,0
2016-08-30T00:42:58.254Z,0
2016-08-30T00:43:57.483Z,0
2016-08-30T00:44:58.195Z,0
2016-08-30T00:45:59.252Z,0
2016-08-30T00:46:57.399Z,0
2016-08-30T00:47:57.361Z,0
2016-08-30T00:48:57.369Z,0
2016-08-30T00:49:57.317Z,0
2016-08-30T00:51:12.005Z,0
2016-08-30T00:51:57.587Z,0
2016-08-30T00:52:58.018Z,0
2016-08-30T00:53:57.998Z,0
2016-08-30T00:54:57.960Z,0
2016-08-30T00:55:58.051Z,0
2016-08-30T00:56:58.735Z,0
2016-08-30T00:58:12.070Z,0
2016-08-30T00:58:57.107Z,0
2016-08-30T00:59:58.490Z,0
2016-08-30T01:00:58.214Z,0
2016-08-30T01:01:57.046Z,0
2016-08-30T01:02:57.014Z,0
2016-08-30T01:03:57.272Z,0
2016-08-30T01:04:57.036Z,0
2016-08-30T01:05:56.966Z,0
2016-08-30T01:07:57.666Z,0
2016-08-30T01:09:11.539Z,0
2016-08-30T01:09:57.080Z,0
2016-08-30T01:10:58.047Z,0
2016-08-30T01:11:57.583Z,0
2016-08-30T01:12:56.770Z,0
2016-08-30T01:13:56.746Z,0
2016-08-30T01:14:56.711Z,0
2016-08-30T01:16:56.951Z,0
2016-08-30T01:17:56.640Z,0
2016-08-30T01:18:57.421Z,0
2016-08-30T01:20:11.293Z,0
2016-08-30T01:20:57.307Z,0
2016-08-30T01:21:56.558Z,0
2016-08-30T01:23:11.453Z,0
2016-08-30T01:23:56.479Z,0
2016-08-30T01:24:56.561Z,0
2016-08-30T01:25:56.413Z,0
2016-08-30T01:26:56.401Z,0
2016-08-30T01:27:56.440Z,0
2016-08-30T01:28:56.667Z,0
2016-08-30T01:29:56.720Z,0
2016-08-30T01:30:59.556Z,0
2016-08-30T01:31:56.260Z,0
2016-08-30T01:32:56.239Z,0
2016-08-30T01:33:56.220Z,0
2016-08-30T01:34:56.459Z,0
2016-08-30T01:35:56.170Z,0
2016-08-30T01:36:56.167Z,0
2016-08-30T01:37:56.137Z,0
2016-08-30T01:38:56.873Z,0
2016-08-30T01:39:56.850Z,0
2016-08-30T01:40:56.390Z,0
2016-08-30T01:41:56.027Z,0
2016-08-30T01:42:56.002Z,0
2016-08-30T01:43:55.985Z,0
2016-08-30T01:45:10.659Z,0
2016-08-30T01:45:57.040Z,0
2016-08-30T01:47:11.615Z,0
2016-08-30T01:47:55.879Z,0
2016-08-30T01:49:11.345Z,0
2016-08-30T01:49:56.680Z,0
2016-08-30T01:50:56.568Z,0
2016-08-30T01:51:55.764Z,0
2016-08-30T01:52:56.813Z,0
2016-08-30T01:53:55.728Z,0
2016-08-30T01:54:55.758Z,0
2016-08-30T01:55:57.531Z,0
2016-08-30T01:56:55.686Z,0
2016-08-30T01:57:55.690Z,0
2016-08-30T01:58:55.905Z,0
2016-08-30T01:59:55.567Z,0
2016-08-30T02:00:56.336Z,0
2016-08-30T02:01:56.308Z,0
2016-08-30T02:03:10.211Z,0
2016-08-30T02:03:56.241Z,0
2016-08-30T02:05:10.529Z,0
2016-08-30T02:05:55.426Z,0
2016-08-30T02:06:55.415Z,0
2016-08-30T02:07:55.412Z,0
2016-08-30T02:08:55.387Z,0
2016-08-30T02:09:55.440Z,0
2016-08-30T02:10:55.734Z,0
2016-08-30T02:12:24.676Z,0
2016-08-30T02:12:55.471Z,0
2016-08-30T02:14:09.925Z,0
2016-08-30T02:14:55.383Z,0
2016-08-30T02:15:55.367Z,0
2016-08-30T02:16:55.603Z,0
2016-08-30T02:17:55.455Z,0
2016-08-30T02:18:55.355Z,0
2016-08-30T02:19:55.388Z,0
2016-08-30T02:21:24.433Z,0
2016-08-30T02:22:09.831Z,0
2016-08-30T02:22:55.502Z,0
2016-08-30T02:24:10.467Z,0
2016-08-30T02:24:55.419Z,0
2016-08-30T02:25:56.060Z,0
2016-08-30T02:27:10.367Z,0
2016-08-30T02:27:55.434Z,0
2016-08-30T02:29:09.551Z,0
2016-08-30T02:30:24.217Z,0
2016-08-30T02:30:55.354Z,0
2016-08-30T02:32:09.514Z,0
2016-08-30T02:32:55.208Z,0
2016-08-30T02:34:09.923Z,0
2016-08-30T02:34:55.272Z,0
2016-08-30T02:35:56.376Z,0
2016-08-30T02:36:56.416Z,0
2016-08-30T02:37:56.097Z,0
2016-08-30T02:38:56.020Z,0
2016-08-30T02:39:56.678Z,0
2016-08-30T02:40:56.043Z,0
2016-08-30T02:41:55.453Z,0
2016-08-30T02:42:55.388Z,0
2016-08-30T02:43:55.349Z,0
2016-08-30T02:45:09.171Z,0
2016-08-30T02:45:54.430Z,0
2016-08-30T02:47:09.288Z,0
2016-08-30T02:47:55.353Z,0
2016-08-30T02:49:09.045Z,0
2016-08-30T02:49:54.348Z,0
2016-08-30T02:51:09.787Z,0
2016-08-30T02:51:55.093Z,0
2016-08-30T02:52:54.291Z,0
2016-08-30T02:53:54.520Z,0
2016-08-30T02:54:54.203Z,0
2016-08-30T02:55:54.551Z,0
2016-08-30T02:56:54.167Z,0
2016-08-30T02:57:54.888Z,0
2016-08-30T02:58:54.856Z,0
2016-08-30T02:59:55.356Z,0
2016-08-30T03:00:55.102Z,0
2016-08-30T03:01:54.838Z,0
2016-08-30T03:02:53.983Z,0
2016-08-30T03:04:08.662Z,0
2016-08-30T03:04:53.965Z,0
2016-08-30T03:06:08.964Z,0
2016-08-30T03:06:53.936Z,0
2016-08-30T03:08:08.592Z,0
2016-08-30T03:08:53.846Z,0
2016-08-30T03:09:53.917Z,0
2016-08-30T03:10:55.235Z,0
2016-08-30T03:11:54.021Z,0
2016-08-30T03:12:54.829Z,0
2016-08-30T03:13:53.716Z,0
2016-08-30T03:14:54.796Z,0
2016-08-30T03:15:53.670Z,0
2016-08-30T03:16:53.708Z,0
2016-08-30T03:17:54.003Z,0
2016-08-30T03:18:55.129Z,0
2016-08-30T03:19:54.334Z,0
2016-08-30T03:20:53.541Z,0
2016-08-30T03:21:53.538Z,0
2016-08-30T03:22:53.488Z,0
2016-08-30T03:24:08.464Z,0
2016-08-30T03:24:54.195Z,0
2016-08-30T03:25:53.460Z,0
2016-08-30T03:26:53.376Z,0
2016-08-30T03:27:53.354Z,0
2016-08-30T03:28:58.628Z,0
2016-08-30T03:29:53.625Z,0
2016-08-30T03:31:08.045Z,0
2016-08-30T03:31:53.261Z,0
2016-08-30T03:32:53.228Z,0
2016-08-30T03:33:53.235Z,0
2016-08-30T03:34:53.265Z,0
2016-08-30T03:35:53.524Z,0
2016-08-30T03:36:53.300Z,0
2016-08-30T03:37:53.296Z,0
2016-08-30T03:38:53.107Z,0
2016-08-30T03:39:53.584Z,0
2016-08-30T03:40:53.284Z,0
2016-08-30T03:41:54.111Z,0
2016-08-30T03:42:53.133Z,0
2016-08-30T03:44:07.661Z,0
2016-08-30T03:44:53.431Z,0
2016-08-30T03:45:53.172Z,0
2016-08-30T03:47:07.560Z,0
2016-08-30T03:47:53.493Z,0
2016-08-30T03:49:07.736Z,0
2016-08-30T03:49:53.130Z,0
2016-08-30T03:50:54.333Z,0
2016-08-30T03:52:07.468Z,0
2016-08-30T03:52:54.606Z,0
2016-08-30T03:54:07.649Z,0
2016-08-30T03:54:53.965Z,0
2016-08-30T03:56:22.051Z,0
2016-08-30T03:57:07.332Z,0
2016-08-30T03:58:07.298Z,0
2016-08-30T03:58:53.895Z,0
2016-08-30T04:00:07.672Z,0
2016-08-30T04:01:07.208Z,0
2016-08-30T04:01:53.044Z,0
2016-08-30T04:03:21.866Z,0
2016-08-30T04:03:53.084Z,0
2016-08-30T04:04:54.459Z,0
2016-08-30T04:05:53.181Z,0
2016-08-30T04:06:53.815Z,0
2016-08-30T04:07:53.024Z,0
2016-08-30T04:08:52.927Z,0
2016-08-30T04:09:53.206Z,0
2016-08-30T04:10:53.650Z,0
2016-08-30T04:11:54.933Z,0
2016-08-30T04:12:53.694Z,0
2016-08-30T04:13:53.086Z,0
2016-08-30T04:14:53.178Z,0
2016-08-30T04:16:53.218Z,0
2016-08-30T04:18:07.085Z,0
2016-08-30T04:18:53.253Z,0
2016-08-30T04:20:06.853Z,0
2016-08-30T04:20:51.994Z,0
2016-08-30T04:22:07.545Z,0
2016-08-30T04:22:52.007Z,0
2016-08-30T04:24:07.771Z,0
2016-08-30T04:25:07.515Z,0
2016-08-30T04:26:06.606Z,0
2016-08-30T04:26:52.610Z,0
2016-08-30T04:27:51.926Z,0
2016-08-30T04:29:52.032Z,0
2016-08-30T04:30:52.072Z,0
2016-08-30T04:31:51.707Z,0
2016-08-30T04:32:51.760Z,0
2016-08-30T04:33:52.438Z,0
2016-08-30T04:34:51.628Z,0
2016-08-30T04:35:53.154Z,0
2016-08-30T04:36:51.589Z,0
2016-08-30T04:37:51.573Z,0
2016-08-30T04:38:51.763Z,0
2016-08-30T04:39:51.534Z,0
2016-08-30T04:40:52.590Z,0
2016-08-30T04:42:06.420Z,0
2016-08-30T04:42:51.427Z,0
2016-08-30T04:43:52.217Z,0
2016-08-30T04:44:51.423Z,0
2016-08-30T04:45:51.370Z,0
2016-08-30T04:46:51.333Z,0
2016-08-30T04:47:52.551Z,0
2016-08-30T04:49:05.969Z,0
2016-08-30T04:49:52.334Z,0
2016-08-30T04:51:05.950Z,0
2016-08-30T04:51:51.233Z,0
2016-08-30T04:52:51.941Z,0
2016-08-30T04:53:51.447Z,0
2016-08-30T04:54:51.782Z,0
2016-08-30T04:55:51.109Z,0
2016-08-30T04:56:51.923Z,0
2016-08-30T04:58:05.721Z,0
2016-08-30T04:58:51.002Z,0
2016-08-30T04:59:51.247Z,0
2016-08-30T05:00:51.757Z,0
2016-08-30T05:01:51.025Z,0
2016-08-30T05:02:52.489Z,0
2016-08-30T05:03:51.081Z,0
2016-08-30T05:04:50.973Z,0
2016-08-30T05:05:51.986Z,0
2016-08-30T05:06:50.976Z,0
2016-08-30T05:07:51.623Z,0
2016-08-30T05:08:50.780Z,0
2016-08-30T05:09:50.733Z,0
2016-08-30T05:10:50.722Z,0
2016-08-30T05:11:50.989Z,0
2016-08-30T05:12:50.689Z,0
2016-08-30T05:13:50.638Z,0
2016-08-30T05:14:50.646Z,0
2016-08-30T05:15:51.377Z,5
2016-08-30T05:16:50.565Z,5
2016-08-30T05:17:52.350Z,5
2016-08-30T05:19:05.957Z,5
2016-08-30T05:19:50.492Z,5
2016-08-30T05:20:51.564Z,5
2016-08-30T05:21:50.528Z,5
2016-08-30T05:22:51.195Z,5
2016-08-30T05:23:50.390Z,5
2016-08-30T05:24:51.147Z,5
2016-08-30T05:25:51.677Z,5
2016-08-30T05:26:50.358Z,5
2016-08-30T05:27:50.319Z,5
2016-08-30T05:28:50.353Z,5
2016-08-30T05:29:50.528Z,5
2016-08-30T05:30:50.967Z,5
2016-08-30T05:31:52.781Z,10
2016-08-30T05:33:05.845Z,10
2016-08-30T05:34:04.817Z,10
2016-08-30T05:34:50.111Z,10
2016-08-30T05:35:51.729Z,10
2016-08-30T05:36:51.855Z,10
2016-08-30T05:37:50.090Z,10
2016-08-30T05:38:51.168Z,10
2016-08-30T05:39:49.990Z,10
2016-08-30T05:40:50.857Z,10
2016-08-30T05:41:51.048Z,10
2016-08-30T05:42:52.679Z,10
2016-08-30T05:43:50.767Z,10
2016-08-30T05:45:04.718Z,15
2016-08-30T05:45:52.213Z,15
2016-08-30T05:46:49.921Z,10
2016-08-30T05:47:50.072Z,15
2016-08-30T05:48:50.513Z,15
2016-08-30T05:49:49.718Z,15
2016-08-30T05:50:49.718Z,15
2016-08-30T05:51:50.468Z,15
2016-08-30T05:52:50.448Z,15
2016-08-30T05:53:50.049Z,15
2016-08-30T05:58:05.294Z,15
2016-08-30T05:58:40.604Z,15
2016-08-30T05:59:41.552Z,15
2016-08-30T06:01:04.081Z,15
2016-08-30T06:01:50.560Z,15
2016-08-30T06:02:39.549Z,15
2016-08-30T06:03:39.610Z,15
2016-08-30T06:04:38.852Z,15
2016-08-30T06:05:39.988Z,15
2016-08-30T06:06:38.899Z,20
2016-08-30T06:07:38.715Z,15
2016-08-30T06:08:39.406Z,15
2016-08-30T06:09:40.645Z,20
2016-08-30T06:10:53.526Z,20
2016-08-30T06:11:39.055Z,20
2016-08-30T06:12:53.274Z,15
2016-08-30T06:13:39.316Z,20
2016-08-30T06:14:38.547Z,15
2016-08-30T06:15:38.474Z,15
2016-08-30T06:16:39.301Z,15
2016-08-30T06:17:38.814Z,15
2016-08-30T06:18:38.813Z,15
2016-08-30T06:19:38.372Z,15
2016-08-30T06:20:38.854Z,20
2016-08-30T06:21:38.788Z,20
2016-08-30T06:22:38.423Z,20
2016-08-30T06:23:39.785Z,20
2016-08-30T06:24:39.029Z,20
2016-08-30T06:25:38.208Z,20
2016-08-30T06:26:38.982Z,20
2016-08-30T06:27:39.628Z,20
2016-08-30T06:28:38.147Z,20
2016-08-30T06:29:38.970Z,20
2016-08-30T06:30:38.071Z,20
2016-08-30T06:31:38.153Z,20
2016-08-30T06:32:38.024Z,20
2016-08-30T06:33:38.040Z,20
2016-08-30T06:34:37.970Z,25
2016-08-30T06:36:22.332Z,25
2016-08-30T06:36:38.739Z,25
2016-08-30T06:37:52.617Z,25
2016-08-30T06:38:37.891Z,25
2016-08-30T06:39:52.547Z,25
2016-08-30T06:40:37.950Z,25
2016-08-30T06:41:38.097Z,25
2016-08-30T06:42:37.797Z,25
2016-08-30T06:43:53.226Z,25
2016-08-30T06:44:37.748Z,25
2016-08-30T06:45:38.849Z,25
2016-08-30T06:46:37.705Z,25
2016-08-30T06:47:37.982Z,25
2016-08-30T06:48:37.666Z,25
2016-08-30T06:49:37.620Z,25
2016-08-30T06:50:38.358Z,25
2016-08-30T06:51:37.556Z,25
2016-08-30T06:53:38.519Z,25
2016-08-30T06:54:52.171Z,25
2016-08-30T06:56:37.674Z,25
2016-08-30T06:57:37.739Z,25
2016-08-30T06:58:37.492Z,25
2016-08-30T06:59:38.475Z,25
2016-08-30T07:00:38.672Z,25
2016-08-30T07:01:37.275Z,25
2016-08-30T07:02:37.387Z,25
2016-08-30T07:03:37.293Z,25
2016-08-30T07:04:37.965Z,25
2016-08-30T07:05:37.451Z,25
2016-08-30T07:06:37.955Z,25
2016-08-30T07:07:37.377Z,25
2016-08-30T07:08:37.131Z,25
2016-08-30T07:09:37.092Z,25
2016-08-30T07:10:37.087Z,25
2016-08-30T07:11:37.357Z,25
2016-08-30T07:12:37.835Z,25
2016-08-30T07:13:37.744Z,25
2016-08-30T07:14:36.932Z,25
2016-08-30T07:15:38.143Z,25
2016-08-30T07:16:37.862Z,25
2016-08-30T07:17:38.012Z,25
2016-08-30T07:18:36.908Z,25
2016-08-30T07:19:36.900Z,25
2016-08-30T07:20:37.367Z,25
2016-08-30T07:21:36.803Z,25
2016-08-30T07:23:06.185Z,30
2016-08-30T07:23:37.126Z,30
2016-08-30T07:24:51.450Z,30
2016-08-30T07:25:37.994Z,30
2016-08-30T07:26:36.660Z,30
2016-08-30T07:27:37.526Z,30
2016-08-30T07:28:51.349Z,30
2016-08-30T07:29:36.570Z,30
2016-08-30T07:30:36.602Z,30
2016-08-30T07:31:37.383Z,30
2016-08-30T07:32:36.631Z,30
2016-08-30T07:33:36.523Z,30
2016-08-30T07:34:37.597Z,30
2016-08-30T07:36:37.382Z,30
2016-08-30T07:37:37.964Z,30
2016-08-30T07:38:37.135Z,30
2016-08-30T07:39:36.344Z,30
2016-08-30T07:40:37.928Z,30
2016-08-30T07:41:36.304Z,30
2016-08-30T07:42:37.136Z,30
2016-08-30T07:43:50.928Z,30
2016-08-30T07:44:36.229Z,30
2016-08-30T07:45:38.502Z,30
2016-08-30T07:46:37.289Z,30
2016-08-30T07:47:37.092Z,30
2016-08-30T07:48:36.173Z,30
2016-08-30T07:49:36.127Z,30
2016-08-30T07:50:36.222Z,30
2016-08-30T07:51:36.070Z,30
2016-08-30T07:53:36.309Z,30
2016-08-30T07:55:05.500Z,30
2016-08-30T07:55:36.756Z,30
2016-08-30T07:56:35.916Z,30
2016-08-30T07:57:36.081Z,30
2016-08-30T07:58:36.061Z,30
2016-08-30T07:59:36.230Z,30
2016-08-30T08:00:37.868Z,30
2016-08-30T08:01:35.846Z,30
2016-08-30T08:02:36.617Z,30
2016-08-30T08:03:35.752Z,30
2016-08-30T08:04:36.481Z,30
2016-08-30T08:05:51.500Z,30
2016-08-30T08:06:37.272Z,30
2016-08-30T08:07:36.446Z,30
2016-08-30T08:08:37.164Z,30
2016-08-30T08:09:37.203Z,30
2016-08-30T08:10:36.383Z,30
2016-08-30T08:11:35.785Z,30
2016-08-30T08:12:51.503Z,30
2016-08-30T08:13:35.507Z,30
2016-08-30T08:14:50.179Z,30
2016-08-30T08:15:35.470Z,30
2016-08-30T08:16:35.456Z,30
2016-08-30T08:17:35.698Z,30
2016-08-30T08:18:35.489Z,30
2016-08-30T08:19:50.091Z,35
2016-08-30T08:20:35.453Z,30
2016-08-30T08:21:36.123Z,30
2016-08-30T08:22:36.447Z,35
2016-08-30T08:23:35.532Z,30
2016-08-30T08:24:35.298Z,30
2016-08-30T08:25:35.272Z,35
2016-08-30T08:26:35.183Z,35
2016-08-30T08:27:36.234Z,35
2016-08-30T08:28:35.148Z,35
2016-08-30T08:29:35.431Z,35
2016-08-30T08:30:35.842Z,35
2016-08-30T08:31:35.073Z,35
2016-08-30T08:32:49.751Z,35
2016-08-30T08:33:35.782Z,35
2016-08-30T08:34:50.513Z,35
2016-08-30T08:35:35.346Z,35
2016-08-30T08:36:34.916Z,35
2016-08-30T08:37:35.081Z,35
2016-08-30T08:38:34.953Z,35
2016-08-30T08:39:35.726Z,35
2016-08-30T08:40:35.424Z,35
2016-08-30T08:42:16.437Z,35
2016-08-30T08:42:35.102Z,35
2016-08-30T08:43:50.665Z,35
2016-08-30T08:44:38.254Z,35
2016-08-30T08:45:44.311Z,35
2016-08-30T08:46:36.172Z,35
2016-08-30T08:47:49.722Z,35
2016-08-30T08:48:34.727Z,35
2016-08-30T08:49:49.359Z,35
2016-08-30T08:50:35.907Z,35
2016-08-30T08:51:49.672Z,35
2016-08-30T08:52:34.646Z,35
2016-08-30T08:53:49.494Z,35
2016-08-30T08:54:34.536Z,35
2016-08-30T08:55:35.878Z,35
2016-08-30T08:56:34.559Z,35
2016-08-30T08:57:34.590Z,35
2016-08-30T08:58:34.413Z,35
2016-08-30T08:59:34.708Z,35
2016-08-30T09:00:35.398Z,35
2016-08-30T09:01:34.413Z,35
2016-08-30T09:02:49.093Z,35
2016-08-30T09:03:34.437Z,35
2016-08-30T09:04:34.500Z,35
2016-08-30T09:05:35.708Z,35
2016-08-30T09:06:35.312Z,35
2016-08-30T09:07:34.299Z,35
2016-08-30T09:08:34.260Z,35
2016-08-30T09:09:34.132Z,35
2016-08-30T09:10:34.168Z,35
2016-08-30T09:11:39.161Z,35
2016-08-30T09:12:34.931Z,35
2016-08-30T09:13:34.110Z,35
2016-08-30T09:14:34.085Z,40
2016-08-30T09:15:34.831Z,40
2016-08-30T09:16:34.003Z,40
2016-08-30T09:17:36.097Z,40
2016-08-30T09:18:34.831Z,40
2016-08-30T09:19:34.804Z,40
2016-08-30T09:20:49.327Z,40
2016-08-30T09:21:33.849Z,40
2016-08-30T09:22:33.970Z,40
2016-08-30T09:23:34.098Z,40
2016-08-30T09:24:33.807Z,35
2016-08-30T09:25:34.994Z,35
2016-08-30T09:26:33.761Z,35
2016-08-30T09:27:34.564Z,35
2016-08-30T09:28:33.865Z,35
2016-08-30T09:29:34.101Z,35
2016-08-30T09:30:34.836Z,35
2016-08-30T09:31:35.177Z,35
2016-08-30T09:32:34.466Z,35
2016-08-30T09:33:34.404Z,35
2016-08-30T09:34:33.682Z,35
2016-08-30T09:35:33.898Z,35
2016-08-30T09:36:33.633Z,35
2016-08-30T09:37:33.470Z,35
2016-08-30T09:38:33.461Z,35
2016-08-30T09:39:34.217Z,35
2016-08-30T09:40:33.395Z,35
2016-08-30T09:41:33.675Z,35
2016-08-30T09:42:48.819Z,30
2016-08-30T09:43:33.306Z,30
2016-08-30T09:44:48.026Z,35
2016-08-30T09:45:33.247Z,30
2016-08-30T09:46:33.233Z,35
2016-08-30T09:47:33.558Z,35
2016-08-30T09:48:33.329Z,35
2016-08-30T09:49:34.744Z,35
2016-08-30T09:50:33.143Z,35
2016-08-30T09:51:34.965Z,35
2016-08-30T09:52:33.288Z,35
2016-08-30T09:53:34.949Z,35
2016-08-30T09:54:33.150Z,35
2016-08-30T09:55:33.036Z,35
2016-08-30T09:56:34.084Z,35
2016-08-30T09:57:33.726Z,35
2016-08-30T09:58:47.684Z,35
2016-08-30T09:59:34.768Z,35
2016-08-30T10:00:35.231Z,35
2016-08-30T10:01:32.980Z,35
2016-08-30T10:02:32.948Z,35
2016-08-30T10:03:32.921Z,35
2016-08-30T10:04:32.824Z,35
2016-08-30T10:07:53.160Z,35
2016-08-30T10:08:51.912Z,35
2016-08-30T10:09:37.306Z,35
2016-08-30T10:11:03.878Z,35
2016-08-30T10:12:39.821Z,35
2016-08-30T10:13:09.929Z,35
2016-08-30T10:13:52.813Z,35
2016-08-30T10:15:50.472Z,35
2016-08-30T10:16:51.561Z,35
2016-08-30T10:17:50.712Z,35
2016-08-30T10:19:05.784Z,35
2016-08-30T10:19:51.118Z,35
2016-08-30T10:21:06.654Z,35
2016-08-30T10:21:51.212Z,20
2016-08-30T10:23:04.994Z,35
2016-08-30T10:23:50.487Z,35
2016-08-30T10:24:56.525Z,35
2016-08-30T10:25:51.337Z,35
2016-08-30T10:26:50.971Z,35
2016-08-30T10:27:50.155Z,35
2016-08-30T10:28:50.868Z,35
2016-08-30T10:29:50.407Z,35
2016-08-30T10:30:52.395Z,35
2016-08-30T10:32:06.325Z,35
2016-08-30T10:32:50.303Z,35
2016-08-30T10:33:50.036Z,35
2016-08-30T10:34:50.758Z,35
2016-08-30T10:35:51.238Z,35
2016-08-30T10:37:49.984Z,35
2016-08-30T10:39:04.535Z,35
2016-08-30T10:39:50.596Z,35
2016-08-30T10:40:50.594Z,35
2016-08-30T10:41:50.115Z,35
2016-08-30T10:42:50.691Z,35
2016-08-30T10:43:51.291Z,35
2016-08-30T10:44:50.517Z,35
2016-08-30T10:45:50.502Z,35
2016-08-30T10:46:49.701Z,35
2016-08-30T10:47:50.666Z,35
2016-08-30T10:48:50.395Z,35
2016-08-30T10:49:49.612Z,35
2016-08-30T10:50:49.610Z,35
2016-08-30T10:51:50.382Z,35
2016-08-30T10:52:49.731Z,35
2016-08-30T10:53:49.990Z,35
2016-08-30T10:54:49.674Z,35
2016-08-30T10:55:55.784Z,35
2016-08-30T10:56:50.569Z,35
2016-08-30T10:57:49.447Z,35
2016-08-30T10:58:50.170Z,35
2016-08-30T10:59:50.470Z,35
2016-08-30T11:00:51.232Z,35
2016-08-30T11:01:49.317Z,35
2016-08-30T11:02:49.417Z,35
2016-08-30T11:03:49.363Z,35
2016-08-30T11:04:49.272Z,35
2016-08-30T11:05:49.537Z,35
2016-08-30T11:06:49.205Z,35
2016-08-30T11:07:49.173Z,35
2016-08-30T11:08:49.899Z,35
2016-08-30T11:09:49.222Z,35
2016-08-30T11:10:49.920Z,35
2016-08-30T11:12:04.911Z,35
2016-08-30T11:12:49.080Z,40
2016-08-30T11:13:50.605Z,40
2016-08-30T11:14:49.048Z,40
2016-08-30T11:15:50.672Z,40
2016-08-30T11:16:49.812Z,40
2016-08-30T11:17:49.334Z,40
2016-08-30T11:18:49.038Z,40
2016-08-30T11:19:49.773Z,40
2016-08-30T11:20:49.349Z,40
2016-08-30T11:21:48.818Z,40
2016-08-30T11:23:50.669Z,40
2016-08-30T11:24:48.751Z,40
2016-08-30T11:25:49.548Z,40
2016-08-30T11:27:05.159Z,40
2016-08-30T11:28:04.216Z,40
2016-08-30T11:28:48.993Z,40
2016-08-30T11:29:49.165Z,40
2016-08-30T11:30:48.941Z,40
2016-08-30T11:31:49.994Z,40
2016-08-30T11:33:03.402Z,40
2016-08-30T11:33:49.048Z,40
2016-08-30T11:34:50.092Z,40
2016-08-30T11:36:06.125Z,40
2016-08-30T11:36:49.250Z,40
2016-08-30T11:38:03.180Z,40
2016-08-30T11:38:48.825Z,40
2016-08-30T11:39:49.241Z,40
2016-08-30T11:40:49.643Z,40
2016-08-30T11:41:49.680Z,40
2016-08-30T11:42:49.147Z,45
2016-08-30T11:43:48.326Z,40
2016-08-30T11:44:49.189Z,40
2016-08-30T11:45:51.168Z,45
2016-08-30T11:46:49.006Z,40
2016-08-30T11:48:04.760Z,45
2016-08-30T11:48:48.859Z,45
2016-08-30T11:49:49.040Z,45
2016-08-30T11:51:04.494Z,45
2016-08-30T11:51:48.917Z,45
2016-08-30T11:52:54.388Z,45
2016-08-30T11:53:48.354Z,45
2016-08-30T11:54:49.096Z,45
2016-08-30T11:55:49.882Z,45
2016-08-30T11:56:50.311Z,55
2016-08-30T11:58:04.092Z,55
2016-08-30T11:58:49.612Z,90
2016-08-30T11:59:49.633Z,135
2016-08-30T12:00:51.024Z,190
2016-08-30T12:01:48.729Z,130
2016-08-30T12:02:48.656Z,130
2016-08-30T12:03:48.035Z,200
2016-08-30T12:04:48.856Z,120
2016-08-30T12:05:48.104Z,65
2016-08-30T12:06:48.592Z,55
2016-08-30T12:07:47.762Z,50
2016-08-30T12:08:47.806Z,50
2016-08-30T12:10:03.055Z,50
2016-08-30T12:10:47.682Z,50
2016-08-30T12:11:47.912Z,55
2016-08-30T12:12:47.953Z,135
2016-08-30T12:13:52.191Z,220
2016-08-30T12:14:47.625Z,795
2016-08-30T12:15:48.400Z,1590
2016-08-30T12:16:47.548Z,1680
2016-08-30T12:17:47.869Z,1400
2016-08-30T12:18:53.906Z,285
2016-08-30T12:19:48.316Z,120
2016-08-30T12:21:04.676Z,60
2016-08-30T12:21:49.091Z,55
2016-08-30T12:23:02.552Z,50
2016-08-30T12:23:49.324Z,50
2016-08-30T12:24:47.636Z,50
2016-08-30T12:25:49.765Z,50
2016-08-30T12:26:48.127Z,50
2016-08-30T12:27:47.439Z,50
2016-08-30T12:28:50.111Z,50
2016-08-30T12:30:05.073Z,50
2016-08-30T12:30:47.666Z,50
2016-08-30T12:32:02.147Z,55
2016-08-30T12:32:49.163Z,75
2016-08-30T12:34:03.912Z,115
2016-08-30T12:34:47.193Z,125
2016-08-30T12:36:02.096Z,75
2016-08-30T12:36:47.179Z,50
2016-08-30T12:38:47.823Z,50
2016-08-30T12:39:47.060Z,55
2016-08-30T12:40:47.034Z,50
2016-08-30T12:41:47.401Z,50
2016-08-30T12:42:46.967Z,50
2016-08-30T12:43:47.807Z,50
2016-08-30T12:44:46.945Z,55
2016-08-30T12:45:46.941Z,55
2016-08-30T12:47:47.136Z,50
2016-08-30T12:48:48.399Z,50
2016-08-30T12:49:46.891Z,50
2016-08-30T12:50:48.841Z,50
2016-08-30T12:51:47.536Z,55
2016-08-30T12:52:47.635Z,50
2016-08-30T12:54:02.002Z,50
2016-08-30T12:54:46.718Z,50
2016-08-30T12:55:47.488Z,50
2016-08-30T12:56:47.414Z,45
2016-08-30T12:57:48.193Z,45
2016-08-30T12:58:46.704Z,45
2016-08-30T12:59:46.854Z,50
2016-08-30T13:00:46.637Z,45
2016-08-30T13:01:46.594Z,50
2016-08-30T13:03:46.483Z,50
2016-08-30T13:05:01.943Z,70
2016-08-30T13:05:47.992Z,50
2016-08-30T13:07:46.579Z,65
2016-08-30T13:08:47.127Z,135
2016-08-30T13:09:46.410Z,425
2016-08-30T13:10:47.117Z,265
2016-08-30T13:11:47.856Z,55
2016-08-30T13:12:47.567Z,50
2016-08-30T13:13:47.018Z,50
2016-08-30T13:14:46.233Z,50
2016-08-30T13:15:46.278Z,50
2016-08-30T13:16:46.249Z,55
2016-08-30T13:17:47.084Z,55
2016-08-30T13:18:46.567Z,80
2016-08-30T13:20:00.804Z,100
2016-08-30T13:20:46.947Z,70
2016-08-30T13:22:00.762Z,55
2016-08-30T13:23:01.543Z,55
2016-08-30T13:23:49.225Z,55
2016-08-30T13:24:46.176Z,70
2016-08-30T13:26:01.542Z,180
2016-08-30T13:26:46.053Z,355
2016-08-30T13:28:01.233Z,260
2016-08-30T13:28:46.178Z,180
2016-08-30T13:29:46.206Z,400
2016-08-30T13:30:45.933Z,480
2016-08-30T13:31:47.471Z,230
2016-08-30T13:33:00.511Z,525
2016-08-30T13:33:46.673Z,645
2016-08-30T13:34:49.517Z,390
2016-08-30T13:35:49.021Z,210
2016-08-30T13:36:47.445Z,325
2016-08-30T13:37:46.655Z,345
2016-08-30T13:38:52.013Z,245
2016-08-30T13:40:16.363Z,285
2016-08-30T13:41:00.738Z,570
2016-08-30T13:41:46.015Z,375
2016-08-30T13:43:45.711Z,215
2016-08-30T13:44:47.147Z,110
2016-08-30T13:45:47.468Z,100
2016-08-30T13:46:45.848Z,140
2016-08-30T13:48:01.845Z,135
2016-08-30T13:48:46.295Z,95
2016-08-30T13:52:07.398Z,90
2016-08-30T13:52:19.685Z,90
2016-08-30T13:53:18.633Z,85
2016-08-30T13:55:18.823Z,130
2016-08-30T13:56:18.847Z,90
2016-08-30T13:57:18.482Z,150
2016-08-30T13:58:17.998Z,210
2016-08-30T13:59:17.695Z,345
2016-08-30T14:00:18.822Z,330
2016-08-30T14:01:17.672Z,205
2016-08-30T14:02:18.037Z,100
2016-08-30T14:03:17.631Z,125
2016-08-30T14:04:17.588Z,140
2016-08-30T14:06:17.587Z,80
2016-08-30T14:07:32.970Z,180
2016-08-30T14:08:17.514Z,145
2016-08-30T14:09:18.340Z,190
2016-08-30T14:10:17.929Z,275
2016-08-30T14:11:18.271Z,160
2016-08-30T14:12:19.271Z,380
2016-08-30T14:13:17.494Z,920
2016-08-30T14:14:17.429Z,835
2016-08-30T14:15:18.126Z,725
2016-08-30T14:16:18.456Z,720
2016-08-30T14:17:18.201Z,890
2016-08-30T14:18:18.381Z,1170
2016-08-30T14:19:18.082Z,1505
2016-08-30T14:20:31.993Z,1135
2016-08-30T14:21:17.298Z,1110
2016-08-30T14:22:19.407Z,800
2016-08-30T14:23:17.333Z,495
2016-08-30T14:24:17.963Z,210
2016-08-30T14:25:17.256Z,70
2016-08-30T14:26:18.037Z,780
2016-08-30T14:27:31.885Z,670
2016-08-30T14:28:17.424Z,995
2016-08-30T14:29:31.922Z,1195
2016-08-30T14:30:17.860Z,790
2016-08-30T14:31:17.090Z,60
2016-08-30T14:32:17.056Z,405
2016-08-30T14:33:17.243Z,90
2016-08-30T14:34:17.396Z,60
2016-08-30T14:35:16.970Z,75
2016-08-30T14:36:16.956Z,105
2016-08-30T14:37:17.733Z,150
2016-08-30T14:38:16.920Z,490
2016-08-30T14:39:16.899Z,125
2016-08-30T14:40:17.359Z,100
2016-08-30T14:41:17.116Z,65
2016-08-30T14:42:17.724Z,240
2016-08-30T14:43:17.907Z,1265
2016-08-30T14:44:31.587Z,510
2016-08-30T14:45:16.814Z,1205
2016-08-30T14:46:17.960Z,1905
2016-08-30T14:47:17.606Z,1825
2016-08-30T14:48:17.578Z,245
2016-08-30T14:49:16.744Z,60
2016-08-30T14:50:17.872Z,55